ADDS METAR Data INFO
IDs: Format: Raw Decoded Include TAF

Data at: 1504 UTC 23 Oct 2017

KDEH 231455Z AUTO VRB06KT 10SM BKN100 10/05 A2981 RMK AO2
KDEH 231435Z AUTO 20005KT 10SM BKN100 09/05 A2982 RMK AO2
KDEH 231415Z AUTO VRB05KT 10SM OVC110 08/05 A2983 RMK AO2
KDEH 231355Z AUTO 17009G15KT 10SM OVC100 07/05 A2983 RMK AO2
KDEH 231335Z AUTO 16005KT 10SM OVC100 07/05 A2983 RMK AO2
KDEH 231315Z AUTO 15006KT 10SM FEW110 06/04 A2982 RMK AO2
KDEH 231255Z AUTO 17005KT 10SM CLR 06/04 A2983 RMK AO2
KDEH 231235Z AUTO 17006KT 10SM CLR 06/04 A2984 RMK AO2
KDEH 231215Z AUTO 15006KT 10SM CLR 06/04 A2984 RMK AO2
KDEH 231155Z AUTO 15003KT 10SM CLR 06/05 A2985 RMK AO2
KDEH 231135Z AUTO 00000KT 10SM CLR 06/05 A2986 RMK AO2
KDEH 231115Z AUTO 15004KT 10SM SCT110 06/05 A2986 RMK AO2
KDEH 231055Z AUTO 00000KT 10SM OVC110 07/05 A2988 RMK AO2
KDEH 231035Z AUTO 18007KT 10SM OVC100 07/05 A2989 RMK AO2
KDEH 231015Z AUTO 17006KT 10SM OVC100 07/05 A2989 RMK AO2
KDEH 230955Z AUTO 16006KT 10SM BKN100 07/05 A2989 RMK AO2
KDEH 230935Z AUTO 17006KT 10SM CLR 07/05 A2990 RMK AO2
KDEH 230915Z AUTO 17005KT 10SM CLR 06/05 A2990 RMK AO2
KDEH 230855Z AUTO 16004KT 10SM CLR 06/05 A2992 RMK AO2
KDEH 230835Z AUTO 15005KT 10SM CLR 06/05 A2992 RMK AO2
KDEH 230815Z AUTO 14003KT 10SM CLR 06/05 A2993 RMK AO2
KDEH 230755Z AUTO 16004KT 10SM CLR 06/05 A2994 RMK AO2
KDEH 230735Z AUTO 15004KT 10SM CLR 07/05 A2994 RMK AO2
KDEH 230715Z AUTO 16005KT 10SM CLR 07/05 A2995 RMK AO2
KDEH 230655Z AUTO 16006KT 10SM CLR 07/06 A2995 RMK AO2
KDEH 230635Z AUTO 16005KT 10SM CLR 07/06 A2996 RMK AO2
KDEH 230615Z AUTO 16006KT 10SM CLR 07/06 A2996 RMK AO2
KDEH 230555Z AUTO 16006KT 10SM CLR 07/06 A2997 RMK AO2
KDEH 230535Z AUTO 16005KT 10SM CLR 08/06 A2998 RMK AO2
KDEH 230515Z AUTO 17007KT 10SM CLR 08/06 A2998 RMK AO2
KDEH 230455Z AUTO 18006KT 10SM CLR 08/06 A2999 RMK AO2
KDEH 230435Z AUTO 17005KT 10SM CLR 08/06 A3000 RMK AO2
KDEH 230415Z AUTO 16004KT 10SM CLR 08/06 A3000 RMK AO2
KDEH 230355Z AUTO 17004KT 10SM CLR 08/06 A3001 RMK AO2
KDEH 230335Z AUTO 16004KT 10SM CLR 08/06 A3001 RMK AO2
KDEH 230315Z AUTO 17004KT 10SM CLR 09/06 A3001 RMK AO2
KDEH 230255Z AUTO VRB04KT 10SM CLR 08/06 A3001 RMK AO2
KDEH 230235Z AUTO 17004G10KT 10SM CLR 09/07 A3001 RMK AO2
KDEH 230215Z AUTO 17005KT 10SM CLR 08/07 A3001 RMK AO2
KDEH 230155Z AUTO 17006KT 10SM CLR 08/07 A3001 RMK AO2
KDEH 230135Z AUTO 17006KT 10SM CLR 09/07 A3002 RMK AO2
KDEH 230115Z AUTO 17006KT 10SM CLR 09/07 A3002 RMK AO2
KDEH 230055Z AUTO 16007KT 10SM CLR 09/07 A3002 RMK AO2
KDEH 230035Z AUTO 16006KT 10SM CLR 09/07 A3002 RMK AO2
KDEH 230015Z AUTO 16005KT 10SM CLR 10/07 A3002 RMK AO2
KDEH 222355Z AUTO 16005KT 10SM CLR 10/07 A3002 RMK AO2
KDEH 222335Z AUTO 16005KT 10SM CLR 11/07 A3002 RMK AO2
KDEH 222315Z AUTO 17005KT 10SM CLR 12/07 A3002 RMK AO2
KDEH 222255Z AUTO 16005KT 10SM CLR 12/07 A3001 RMK AO2
KDEH 222235Z AUTO 17004KT 10SM CLR 12/07 A3001 RMK AO2
KDEH 222215Z AUTO 18003KT 10SM CLR 13/07 A3001 RMK AO2
KDEH 222155Z AUTO 00000KT 10SM CLR 13/06 A3001 RMK AO2
KDEH 222135Z AUTO 00000KT 10SM CLR 13/06 A3001 RMK AO2
KDEH 222115Z AUTO 00000KT 10SM CLR 13/06 A3000 RMK AO2
KDEH 222055Z AUTO 00000KT 10SM CLR 13/06 A3001 RMK AO2
KDEH 222035Z AUTO 00000KT 10SM CLR 13/06 A3001 RMK AO2
KDEH 222015Z AUTO VRB03KT 10SM CLR 13/06 A3002 RMK AO2
KDEH 221955Z AUTO 00000KT 10SM CLR 12/07 A3002 RMK AO2
KDEH 221935Z AUTO 29004KT 10SM CLR 12/07 A3002 RMK AO2
KDEH 221915Z AUTO 00000KT 10SM CLR 12/07 A3002 RMK AO2
KDEH 221855Z AUTO 28004KT 10SM CLR 11/07 A3002 RMK AO2
KDEH 221835Z AUTO 30004KT 10SM CLR 11/07 A3001 RMK AO2
KDEH 221815Z AUTO 30004KT 10SM CLR 11/08 A3002 RMK AO2
KDEH 221755Z AUTO 29005KT 10SM CLR 11/08 A3001 RMK AO2
KDEH 221735Z AUTO VRB04KT 10SM CLR 11/08 A3001 RMK AO2
KDEH 221715Z AUTO VRB03KT 10SM CLR 11/08 A3002 RMK AO2
KDEH 221655Z AUTO 32004KT 10SM CLR 10/08 A3002 RMK AO2
KDEH 221635Z AUTO VRB03KT 10SM CLR 10/08 A3002 RMK AO2
KDEH 221615Z AUTO 00000KT 10SM CLR 10/08 A3002 RMK AO2
KDEH 221555Z AUTO 30003KT 10SM CLR 10/08 A3002 RMK AO2
KDEH 221535Z AUTO VRB03KT 10SM CLR 10/08 A3001 RMK AO2
KDEH 221515Z AUTO 00000KT 10SM CLR 10/08 A3000 RMK AO2
KDEH 221455Z AUTO 00000KT 10SM SCT070 10/08 A3000 RMK AO2
KDEH 221435Z AUTO 00000KT 10SM BKN070 10/08 A3000 RMK AO2
KDEH 221415Z AUTO 00000KT 10SM BKN070 10/08 A2997 RMK AO2
KDEH 221355Z AUTO 00000KT 10SM OVC065 09/08 A2997 RMK AO2
KDEH 221335Z AUTO 31004KT 10SM OVC065 09/08 A2997 RMK AO2
KDEH 221315Z AUTO VRB04KT 10SM OVC065 09/08 A2996 RMK AO2
KDEH 221255Z AUTO VRB04KT 10SM OVC060 09/08 A2996 RMK AO2
KDEH 221235Z AUTO VRB03KT 10SM FEW055 OVC065 09/08 A2995 RMK AO2
KDEH 221215Z AUTO 30005KT 10SM FEW055 OVC070 09/08 A2995 RMK AO2
KDEH 221155Z AUTO 30003KT 10SM FEW060 BKN070 OVC110 09/09 A2994 RMK AO2 P0001
KDEH 221135Z AUTO VRB04KT 10SM FEW055 OVC070 10/09 A2995 RMK AO2
KDEH 221115Z AUTO 00000KT 10SM BKN060 OVC070 10/09 A2996 RMK AO2
KDEH 221055Z AUTO 00000KT 10SM OVC055 10/09 A2995 RMK AO2 P0003
KDEH 221035Z AUTO 00000KT 10SM -RA BKN055 BKN065 OVC075 10/09 A2994 RMK AO2
KDEH 221015Z AUTO 29003KT 9SM -RA SCT033 OVC055 10/09 A2994 RMK AO2
KDEH 220955Z AUTO VRB03KT 8SM -RA SCT033 BKN039 OVC070 10/09 A2993 RMK AO2 P0002
KDEH 220935Z AUTO 00000KT 10SM FEW037 BKN060 OVC075 10/09 A2992 RMK AO2
KDEH 220915Z AUTO 32004KT 10SM SCT038 BKN050 OVC075 10/09 A2989 RMK AO2
KDEH 220855Z AUTO 00000KT 10SM -DZ OVC050 10/09 A2991 RMK AO2 P0002
KDEH 220835Z AUTO 31005KT 10SM -DZ FEW031 OVC050 10/09 A2990 RMK AO2
KDEH 220815Z AUTO 31005G11KT 8SM -RA FEW029 SCT034 OVC050 10/09 A2990 RMK AO2
KDEH 220755Z AUTO 30007KT 9SM -RA BKN033 OVC043 11/09 A2991 RMK AO2 P0005
KDEH 220735Z AUTO 31007KT 9SM -DZ FEW012 FEW019 OVC032 11/10 A2990 RMK AO2
KDEH 220715Z AUTO VRB04KT 5SM -RA BKN013 OVC019 11/10 A2990 RMK AO2
KDEH 220655Z AUTO 31005KT 8SM -RA OVC014 12/10 A2990 RMK AO2 P0001
KDEH 220635Z AUTO 00000KT 10SM BKN015 BKN019 OVC026 12/11 A2991 RMK AO2
KDEH 220615Z AUTO VRB06KT 10SM OVC025 12/11 A2986 RMK AO2
KDEH 220555Z AUTO 32008G14KT 10SM OVC022 12/11 A2985 RMK AO2 P0004
KDEH 220535Z AUTO 31007G15KT 270V340 10SM -RA SCT009 SCT016 OVC021 13/12 A2986 RMK AO2
KDEH 220515Z AUTO 29008G16KT 240V320 7SM -RA BKN006 OVC010 13/13 A2986 RMK AO2
KDEH 220455Z AUTO 29010G17KT 260V330 5SM RA BKN006 OVC010 16/16 A2983 RMK AO2 P0025
KDEH 220435Z AUTO 21008G15KT 3SM RA BKN009 OVC014 16/16 A2984 RMK AO2
KDEH 220415Z AUTO 19008G16KT 5SM RA SCT009 BKN013 OVC030 16/16 A2983 RMK AO2
KDEH 220355Z AUTO 19009G16KT 5SM -RA FEW016 BKN030 OVC100 16/15 A2982 RMK AO2 P0017
KDEH 220335Z AUTO 17009G17KT 4SM -RA BKN031 BKN048 OVC100 16/15 A2981 RMK AO2
KDEH 220315Z AUTO 17012G19KT 3SM RA BKN030 BKN039 OVC047 16/15 A2981 RMK AO2